| time (UTC) | temp F | wind direction | speed MPH | gust MPH | rain 1hr in | rain 24hr in | rain mn in | humidity % | barometer mb |
| 20260906010446 | 90 | 351 | 8.0 | 9.0 | 0.00 | 0.00 | 0.00 | 30 | 1009.4 |
| 20260906005423 | 90 | 351 | 7.0 | 8.0 | 0.00 | 0.00 | 0.00 | 29 | 1009.4 |
| 20260906004400 | 91 | 351 | 7.0 | 9.0 | 0.00 | 0.00 | 0.00 | 29 | 1009.4 |
| 20260906003336 | 92 | 351 | 6.0 | 8.0 | 0.00 | 0.00 | 0.00 | 28 | 1009.4 |
| 20260906002313 | 92 | 351 | 5.0 | 8.0 | 0.00 | 0.00 | 0.00 | 28 | 1009.4 |
| 20260906001249 | 93 | 351 | 7.0 | 10.0 | 0.00 | 0.00 | 0.00 | 27 | 1009.4 |
| 20260906000226 | 93 | 351 | 8.0 | 12.0 | 0.00 | 0.00 | 0.00 | 27 | 1009.4 |
| 20260905235202 | 94 | 351 | 8.0 | 10.0 | 0.00 | 0.00 | 0.00 | 27 | 1009.4 |
| 20260905234138 | 95 | 351 | 10.0 | 13.0 | 0.00 | 0.00 | 0.00 | 26 | 1008.4 |
| 20260905233114 | 96 | 351 | 11.0 | 15.0 | 0.00 | 0.00 | 0.00 | 26 | 1008.4 |
| 20260905232051 | 97 | 351 | 12.0 | 15.0 | 0.00 | 0.00 | 0.00 | 26 | 1008.4 |
| 20260905231027 | 97 | 351 | 10.0 | 13.0 | 0.00 | 0.00 | 0.00 | 26 | 1008.4 |
| 20260905230003 | 97 | 351 | 5.0 | 8.0 | 0.00 | 0.00 | 0.00 | 26 | 1008.4 |
| 20260905224939 | 97 | 351 | 8.0 | 13.0 | 0.00 | 0.00 | 0.00 | 26 | 1008.4 |
| 20260905223916 | 97 | 351 | 10.0 | 12.0 | 0.00 | 0.00 | 0.00 | 26 | 1008.4 |
| 20260905222852 | 97 | 351 | 9.0 | 10.0 | 0.00 | 0.00 | 0.00 | 26 | 1008.4 |
| 20260905221828 | 97 | 351 | 8.0 | 12.0 | 0.00 | 0.00 | 0.00 | 26 | 1008.4 |
| 20260905220801 | 97 | 351 | 7.0 | 16.0 | 0.00 | 0.00 | 0.00 | 27 | 1008.4 |
| 20260905215737 | 96 | 351 | 7.0 | 12.0 | 0.00 | 0.00 | 0.00 | 26 | 1008.4 |
| 20260905214713 | 95 | 351 | 13.0 | 14.0 | 0.00 | 0.00 | 0.00 | 29 | 1008.4 |
| 20260905213650 | 95 | 351 | 8.0 | 9.0 | 0.00 | 0.00 | 0.00 | 31 | 1008.4 |
| 20260905212602 | 95 | 351 | 8.0 | 14.0 | 0.00 | 0.00 | 0.00 | 31 | 1008.4 |
| 20260905211537 | 95 | 351 | 9.0 | 14.0 | 0.00 | 0.00 | 0.00 | 30 | 1008.4 |
| 20260905210513 | 96 | 351 | 8.0 | 10.0 | 0.00 | 0.00 | 0.00 | 29 | 1009.4 |
| 20260905205449 | 96 | 351 | 9.0 | 11.0 | 0.00 | 0.00 | 0.00 | 28 | 1009.4 |
| 20260905204425 | 97 | 351 | 7.0 | 10.0 | 0.00 | 0.00 | 0.00 | 27 | 1009.4 |
| 20260905202337 | 97 | 351 | 8.0 | 12.0 | 0.00 | 0.00 | 0.00 | 27 | 1009.4 |
| 20260905201308 | 97 | 351 | 7.0 | 14.0 | 0.00 | 0.00 | 0.00 | 28 | 1010.4 |
| 20260905200244 | 96 | 351 | 5.0 | 13.0 | 0.00 | 0.00 | 0.00 | 28 | 1010.4 |
| 20260905195220 | 96 | 351 | 7.0 | 12.0 | 0.00 | 0.00 | 0.00 | 28 | 1010.4 |
| 20260905194156 | 95 | 351 | 8.0 | 15.0 | 0.00 | 0.00 | 0.00 | 30 | 1011.4 |
| 20260905193132 | 94 | 351 | 10.0 | 12.0 | 0.00 | 0.00 | 0.00 | 30 | 1011.4 |
| 20260905192646 | 85 | 351 | 11.0 | 13.0 | 0.00 | 0.00 | 0.00 | 57 | 1013.4 |
| 20260905192109 | 93 | 351 | 11.0 | 15.0 | 0.00 | 0.00 | 0.00 | 30 | 1011.4 |
| 20260905191045 | 93 | 351 | 10.0 | 14.0 | 0.00 | 0.00 | 0.00 | 31 | 1012.4 |
| 20260905190021 | 93 | 351 | 7.0 | 12.0 | 0.00 | 0.00 | 0.00 | 33 | 1012.4 |
| 20260905183934 | 93 | 351 | 7.0 | 11.0 | 0.00 | 0.00 | 0.00 | 31 | 1012.4 |
| 20260905182910 | 94 | 351 | 9.0 | 12.0 | 0.00 | 0.00 | 0.00 | 31 | 1012.4 |
| 20260905181845 | 94 | 351 | 12.0 | 16.0 | 0.00 | 0.00 | 0.00 | 33 | 1012.4 |
| 20260905180822 | 94 | 351 | 10.0 | 14.0 | 0.00 | 0.00 | 0.00 | 34 | 1012.4 |
| 20260905175759 | 94 | 351 | 10.0 | 16.0 | 0.00 | 0.00 | 0.00 | 35 | 1012.4 |
| 20260905174734 | 94 | 351 | 13.0 | 13.0 | 0.00 | 0.00 | 0.00 | 35 | 1012.4 |
| 20260905173711 | 93 | 351 | 8.0 | 13.0 | 0.00 | 0.00 | 0.00 | 36 | 1012.4 |
| 20260905172648 | 93 | 351 | 8.0 | 14.0 | 0.00 | 0.00 | 0.00 | 34 | 1012.4 |
| 20260905171623 | 92 | 351 | 8.0 | 11.0 | 0.00 | 0.00 | 0.00 | 35 | 1012.4 |
| 20260905170559 | 92 | 351 | 11.0 | 13.0 | 0.00 | 0.00 | 0.00 | 36 | 1012.4 |
| 20260905165535 | 92 | 351 | 10.0 | 13.0 | 0.00 | 0.00 | 0.00 | 36 | 1012.4 |
| 20260905164511 | 92 | 351 | 10.0 | 12.0 | 0.00 | 0.00 | 0.00 | 38 | 1012.4 |
| 20260905163448 | 91 | 351 | 10.0 | 14.0 | 0.00 | 0.00 | 0.00 | 39 | 1013.4 |
| 20260905162424 | 90 | 351 | 8.0 | 10.0 | 0.00 | 0.00 | 0.00 | 42 | 1013.4 |
| 20260905161401 | 89 | 351 | 5.0 | 11.0 | 0.00 | 0.00 | 0.00 | 42 | 1013.4 |
| 20260905160337 | 88 | 351 | 8.0 | 10.0 | 0.00 | 0.00 | 0.00 | 43 | 1013.4 |
| 20260905155314 | 87 | 351 | 10.0 | 13.0 | 0.00 | 0.00 | 0.00 | 47 | 1013.4 |
| 20260905154250 | 86 | 351 | 9.0 | 11.0 | 0.00 | 0.00 | 0.00 | 51 | 1013.4 |
| 20260905153227 | 86 | 351 | 9.0 | 12.0 | 0.00 | 0.00 | 0.00 | 51 | 1013.4 |
| 20260905152203 | 86 | 351 | 6.0 | 10.0 | 0.00 | 0.00 | 0.00 | 53 | 1013.4 |
| 20260905151141 | 85 | 351 | 7.0 | 14.0 | 0.00 | 0.00 | 0.00 | 54 | 1013.4 |
| 20260905150117 | 85 | 351 | 11.0 | 13.0 | 0.00 | 0.00 | 0.00 | 57 | 1013.4 |
| 20260905145053 | 84 | 351 | 10.0 | 12.0 | 0.00 | 0.00 | 0.00 | 60 | 1014.4 |
| 20260905143007 | 82 | 351 | 7.0 | 11.0 | 0.00 | 0.00 | 0.00 | 65 | 1014.4 |
| 20260905141944 | 81 | 351 | 7.0 | 11.0 | 0.00 | 0.00 | 0.00 | 65 | 1014.4 |
| 20260905140921 | 80 | 351 | 6.0 | 10.0 | 0.00 | 0.00 | 0.00 | 68 | 1014.4 |
| 20260905135858 | 79 | 347 | 7.0 | 10.0 | 0.00 | 0.00 | 0.00 | 68 | 1014.4 |
| 20260905134835 | 79 | 347 | 7.0 | 8.0 | 0.00 | 0.00 | 0.00 | 68 | 1014.4 |
| 20260905133811 | 79 | 351 | 7.0 | 8.0 | 0.00 | 0.00 | 0.00 | 68 | 1014.4 |
| 20260905132748 | 79 | 347 | 7.0 | 8.0 | 0.00 | 0.00 | 0.00 | 68 | 1014.4 |
| 20260905131725 | 79 | 347 | 6.0 | 9.0 | 0.00 | 0.00 | 0.00 | 68 | 1014.4 |
| 20260905130650 | 79 | 347 | 5.0 | 8.0 | 0.00 | 0.00 | 0.00 | 68 | 1014.4 |
| 20260905125616 | 79 | 347 | 5.0 | 8.0 | 0.00 | 0.00 | 0.00 | 68 | 1013.4 |
| 20260905124553 | 79 | 347 | 5.0 | 7.0 | 0.00 | 0.00 | 0.00 | 67 | 1013.4 |
| 20260905123530 | 79 | 351 | 7.0 | 8.0 | 0.00 | 0.00 | 0.00 | 67 | 1013.4 |
| 20260905122507 | 79 | 351 | 8.0 | 9.0 | 0.00 | 0.00 | 0.00 | 66 | 1013.4 |
| 20260905121430 | 79 | 351 | 6.0 | 8.0 | 0.00 | 0.00 | 0.00 | 66 | 1013.4 |
| 20260905120408 | 79 | 351 | 6.0 | 7.0 | 0.00 | 0.00 | 0.00 | 66 | 1013.4 |
| 20260905115312 | 79 | 347 | 5.0 | 7.0 | 0.00 | 0.00 | 0.00 | 67 | 1013.4 |
| 20260905114154 | 79 | 351 | 6.0 | 7.0 | 0.00 | 0.00 | 0.00 | 67 | 1013.4 |
| 20260905113121 | 79 | 351 | 5.0 | 7.0 | 0.00 | 0.00 | 0.00 | 67 | 1013.4 |
| 20260905112034 | 79 | 351 | 5.0 | 8.0 | 0.00 | 0.00 | 0.00 | 67 | 1013.4 |
| 20260905110915 | 79 | 351 | 6.0 | 9.0 | 0.00 | 0.00 | 0.00 | 66 | 1013.4 |
| 20260905105852 | 79 | 351 | 6.0 | 8.0 | 0.00 | 0.00 | 0.00 | 66 | 1013.4 |
| 20260905104829 | 79 | 347 | 7.0 | 7.0 | 0.00 | 0.00 | 0.00 | 66 | 1013.4 |
| 20260905103737 | 79 | 351 | 5.0 | 7.0 | 0.00 | 0.00 | 0.00 | 65 | 1013.4 |
| 20260905102714 | 79 | 351 | 6.0 | 7.0 | 0.00 | 0.00 | 0.00 | 65 | 1013.4 |
| 20260905100628 | 79 | 351 | 7.0 | 8.0 | 0.00 | 0.00 | 0.00 | 64 | 1013.4 |
| 20260905095604 | 79 | 347 | 7.0 | 8.0 | 0.00 | 0.00 | 0.00 | 64 | 1013.4 |
| 20260905094541 | 79 | 351 | 7.0 | 9.0 | 0.00 | 0.00 | 0.00 | 64 | 1013.4 |
| 20260905093518 | 79 | 351 | 9.0 | 10.0 | 0.00 | 0.00 | 0.00 | 63 | 1013.4 |
| 20260905092455 | 79 | 351 | 8.0 | 11.0 | 0.00 | 0.00 | 0.00 | 62 | 1013.4 |
| 20260905091433 | 79 | 351 | 7.0 | 13.0 | 0.00 | 0.00 | 0.00 | 61 | 1013.4 |
| 20260905090409 | 80 | 351 | 7.0 | 11.0 | 0.00 | 0.00 | 0.00 | 60 | 1013.4 |
| 20260905085346 | 80 | 351 | 8.0 | 10.0 | 0.00 | 0.00 | 0.00 | 59 | 1013.4 |
| 20260905084324 | 80 | 351 | 8.0 | 11.0 | 0.00 | 0.00 | 0.00 | 59 | 1013.4 |
| 20260905083300 | 80 | 351 | 9.0 | 11.0 | 0.00 | 0.00 | 0.00 | 58 | 1013.4 |
| 20260905082237 | 81 | 351 | 10.0 | 13.0 | 0.00 | 0.00 | 0.00 | 57 | 1013.4 |
| 20260905081213 | 81 | 351 | 10.0 | 14.0 | 0.00 | 0.00 | 0.00 | 56 | 1013.4 |
| 20260905080150 | 81 | 351 | 10.0 | 12.0 | 0.00 | 0.00 | 0.00 | 54 | 1013.4 |
| 20260905075125 | 81 | 351 | 8.0 | 12.0 | 0.00 | 0.00 | 0.00 | 52 | 1013.4 |
| 20260905074101 | 82 | 351 | 7.0 | 10.0 | 0.00 | 0.00 | 0.00 | 51 | 1013.4 |
| 20260905073038 | 82 | 351 | 7.0 | 11.0 | 0.00 | 0.00 | 0.00 | 50 | 1013.4 |
| 20260905072015 | 82 | 351 | 8.0 | 12.0 | 0.00 | 0.00 | 0.00 | 49 | 1013.4 |
| 20260905070953 | 82 | 351 | 10.0 | 13.0 | 0.00 | 0.00 | 0.00 | 49 | 1013.4 |
| 20260905065929 | 83 | 351 | 12.0 | 11.0 | 0.00 | 0.00 | 0.00 | 48 | 1013.4 |
| 20260905064906 | 83 | 351 | 10.0 | 16.0 | 0.00 | 0.00 | 0.00 | 46 | 1013.4 |
| 20260905063843 | 83 | 351 | 11.0 | 12.0 | 0.00 | 0.00 | 0.00 | 45 | 1013.4 |
| 20260905062819 | 83 | 351 | 9.0 | 14.0 | 0.00 | 0.00 | 0.00 | 44 | 1012.4 |
| 20260905061756 | 84 | 351 | 10.0 | 16.0 | 0.00 | 0.00 | 0.00 | 43 | 1012.4 |
| 20260905060733 | 84 | 351 | 12.0 | 16.0 | 0.00 | 0.00 | 0.00 | 42 | 1013.4 |
| 20260905055710 | 84 | 351 | 10.0 | 12.0 | 0.00 | 0.00 | 0.00 | 40 | 1013.4 |
| 20260905054647 | 84 | 351 | 11.0 | 15.0 | 0.00 | 0.00 | 0.00 | 40 | 1013.4 |
| 20260905053623 | 84 | 351 | 9.0 | 14.0 | 0.00 | 0.00 | 0.00 | 39 | 1012.4 |
| 20260905052600 | 84 | 351 | 12.0 | 15.0 | 0.00 | 0.00 | 0.00 | 39 | 1013.4 |
| 20260905051537 | 84 | 351 | 12.0 | 16.0 | 0.00 | 0.00 | 0.00 | 40 | 1013.4 |
| 20260905050514 | 84 | 351 | 10.0 | 12.0 | 0.00 | 0.00 | 0.00 | 42 | 1013.4 |
| 20260905045451 | 83 | 351 | 7.0 | 11.0 | 0.00 | 0.00 | 0.00 | 43 | 1013.4 |
| 20260905044427 | 83 | 351 | 8.0 | 10.0 | 0.00 | 0.00 | 0.00 | 43 | 1013.4 |
| 20260905043405 | 83 | 351 | 8.0 | 10.0 | 0.00 | 0.00 | 0.00 | 43 | 1013.4 |
| 20260905042342 | 84 | 351 | 8.0 | 9.0 | 0.00 | 0.00 | 0.00 | 42 | 1013.4 |
| 20260905041319 | 84 | 351 | 7.0 | 9.0 | 0.00 | 0.00 | 0.00 | 42 | 1013.4 |
| 20260905035231 | 85 | 351 | 7.0 | 11.0 | 0.00 | 0.00 | 0.00 | 41 | 1013.4 |
| 20260905034208 | 85 | 351 | 7.0 | 10.0 | 0.00 | 0.00 | 0.00 | 40 | 1013.4 |
| 20260905033146 | 85 | 351 | 9.0 | 12.0 | 0.00 | 0.00 | 0.00 | 40 | 1013.4 |
| 20260905032122 | 86 | 351 | 10.0 | 14.0 | 0.00 | 0.00 | 0.00 | 39 | 1012.4 |
| 20260905031059 | 86 | 351 | 10.0 | 12.0 | 0.00 | 0.00 | 0.00 | 39 | 1012.4 |
| 20260905030036 | 86 | 351 | 10.0 | 12.0 | 0.00 | 0.00 | 0.00 | 39 | 1012.4 |
| 20260905025013 | 86 | 351 | 10.0 | 12.0 | 0.00 | 0.00 | 0.00 | 38 | 1012.4 |
| 20260905023948 | 86 | 351 | 11.0 | 16.0 | 0.00 | 0.00 | 0.00 | 38 | 1011.4 |
| 20260905022925 | 86 | 351 | 11.0 | 16.0 | 0.00 | 0.00 | 0.00 | 38 | 1011.4 |
| 20260905021902 | 87 | 351 | 12.0 | 18.0 | 0.00 | 0.00 | 0.00 | 39 | 1011.4 |
| 20260905020839 | 87 | 351 | 14.0 | 15.0 | 0.00 | 0.00 | 0.00 | 39 | 1011.4 |
| 20260905015815 | 87 | 351 | 11.0 | 15.0 | 0.00 | 0.00 | 0.00 | 39 | 1011.4 |
| 20260905014753 | 88 | 351 | 12.0 | 16.0 | 0.00 | 0.00 | 0.00 | 39 | 1011.4 |
| 20260905013729 | 88 | 351 | 15.0 | 19.0 | 0.00 | 0.00 | 0.00 | 38 | 1010.4 |
| 20260905012706 | 89 | 351 | 14.0 | 18.0 | 0.00 | 0.00 | 0.00 | 36 | 1010.4 |
| 20260905011640 | 90 | 351 | 14.0 | 16.0 | 0.00 | 0.00 | 0.00 | 33 | 1010.4 |